sensor_id;sensor_type;location;lat;lon;timestamp;P1;durP1;ratioP1;P2;durP2;ratioP2
64293;SDS011;50636;45.596;5.258;2023-03-21T00:01:55;18.90;;;13.40;;
64293;SDS011;50636;45.596;5.258;2023-03-21T00:04:24;14.88;;;7.85;;
64293;SDS011;50636;45.596;5.258;2023-03-21T00:06:50;8.38;;;7.13;;
64293;SDS011;50636;45.596;5.258;2023-03-21T00:09:16;10.00;;;6.22;;
64293;SDS011;50636;45.596;5.258;2023-03-21T00:11:43;11.70;;;6.88;;
64293;SDS011;50636;45.596;5.258;2023-03-21T00:14:08;13.13;;;6.85;;
64293;SDS011;50636;45.596;5.258;2023-03-21T00:16:38;10.55;;;7.20;;
64293;SDS011;50636;45.596;5.258;2023-03-21T00:19:04;7.97;;;6.60;;
64293;SDS011;50636;45.596;5.258;2023-03-21T00:21:31;14.32;;;7.10;;
64293;SDS011;50636;45.596;5.258;2023-03-21T00:24:02;8.68;;;6.63;;
64293;SDS011;50636;45.596;5.258;2023-03-21T00:26:31;9.20;;;6.80;;
64293;SDS011;50636;45.596;5.258;2023-03-21T00:28:57;25.65;;;7.78;;
64293;SDS011;50636;45.596;5.258;2023-03-21T00:31:22;14.93;;;5.97;;
64293;SDS011;50636;45.596;5.258;2023-03-21T00:33:48;9.65;;;6.95;;
64293;SDS011;50636;45.596;5.258;2023-03-21T00:36:14;8.35;;;7.07;;
64293;SDS011;50636;45.596;5.258;2023-03-21T00:38:40;11.70;;;7.03;;
64293;SDS011;50636;45.596;5.258;2023-03-21T00:41:07;13.52;;;7.78;;
64293;SDS011;50636;45.596;5.258;2023-03-21T00:43:34;13.73;;;7.15;;
64293;SDS011;50636;45.596;5.258;2023-03-21T00:46:00;14.52;;;7.32;;
64293;SDS011;50636;45.596;5.258;2023-03-21T00:48:27;9.73;;;7.05;;
64293;SDS011;50636;45.596;5.258;2023-03-21T00:50:53;14.02;;;7.15;;
64293;SDS011;50636;45.596;5.258;2023-03-21T00:53:21;10.82;;;6.75;;
64293;SDS011;50636;45.596;5.258;2023-03-21T00:55:48;22.98;;;13.07;;
64293;SDS011;50636;45.596;5.258;2023-03-21T00:58:14;39.20;;;29.60;;
64293;SDS011;50636;45.596;5.258;2023-03-21T01:00:41;24.42;;;18.85;;
64293;SDS011;50636;45.596;5.258;2023-03-21T01:03:07;16.45;;;11.90;;
64293;SDS011;50636;45.596;5.258;2023-03-21T01:05:36;17.80;;;12.20;;
64293;SDS011;50636;45.596;5.258;2023-03-21T01:08:22;38.90;;;21.33;;
64293;SDS011;50636;45.596;5.258;2023-03-21T01:10:49;22.50;;;16.48;;
64293;SDS011;50636;45.596;5.258;2023-03-21T01:13:16;12.13;;;8.43;;
64293;SDS011;50636;45.596;5.258;2023-03-21T01:15:45;19.05;;;9.52;;
64293;SDS011;50636;45.596;5.258;2023-03-21T01:18:14;16.30;;;8.52;;
64293;SDS011;50636;45.596;5.258;2023-03-21T01:20:41;16.27;;;10.63;;
64293;SDS011;50636;45.596;5.258;2023-03-21T01:23:09;11.32;;;7.65;;
64293;SDS011;50636;45.596;5.258;2023-03-21T01:25:36;10.02;;;7.45;;
64293;SDS011;50636;45.596;5.258;2023-03-21T01:28:01;8.70;;;6.53;;
64293;SDS011;50636;45.596;5.258;2023-03-21T01:30:28;13.73;;;7.13;;
64293;SDS011;50636;45.596;5.258;2023-03-21T01:32:53;9.88;;;7.20;;
64293;SDS011;50636;45.596;5.258;2023-03-21T01:35:19;9.20;;;6.30;;
64293;SDS011;50636;45.596;5.258;2023-03-21T01:37:45;10.65;;;7.80;;
64293;SDS011;50636;45.596;5.258;2023-03-21T01:40:16;12.20;;;8.43;;
64293;SDS011;50636;45.596;5.258;2023-03-21T01:42:45;14.15;;;7.43;;
64293;SDS011;50636;45.596;5.258;2023-03-21T01:48:14;11.10;;;6.45;;
64293;SDS011;50636;45.596;5.258;2023-03-21T01:50:40;12.52;;;6.93;;
64293;SDS011;50636;45.596;5.258;2023-03-21T01:53:07;8.77;;;6.65;;
64293;SDS011;50636;45.596;5.258;2023-03-21T01:55:34;7.00;;;6.18;;
64293;SDS011;50636;45.596;5.258;2023-03-21T01:58:01;16.30;;;10.82;;
64293;SDS011;50636;45.596;5.258;2023-03-21T02:00:29;11.07;;;6.82;;
64293;SDS011;50636;45.596;5.258;2023-03-21T02:02:55;10.82;;;7.13;;
64293;SDS011;50636;45.596;5.258;2023-03-21T02:08:27;14.02;;;7.78;;
64293;SDS011;50636;45.596;5.258;2023-03-21T02:10:54;12.13;;;7.38;;
64293;SDS011;50636;45.596;5.258;2023-03-21T02:13:21;9.77;;;6.85;;
64293;SDS011;50636;45.596;5.258;2023-03-21T02:26:54;10.55;;;6.50;;
64293;SDS011;50636;45.596;5.258;2023-03-21T02:38:14;12.65;;;8.88;;
64293;SDS011;50636;45.596;5.258;2023-03-21T02:46:45;7.28;;;4.60;;
64293;SDS011;50636;45.596;5.258;2023-03-21T02:49:29;11.85;;;8.30;;
64293;SDS011;50636;45.596;5.258;2023-03-21T02:52:02;14.73;;;10.63;;
64293;SDS011;50636;45.596;5.258;2023-03-21T02:54:32;12.23;;;6.53;;
64293;SDS011;50636;45.596;5.258;2023-03-21T02:56:59;10.32;;;6.60;;
64293;SDS011;50636;45.596;5.258;2023-03-21T02:59:28;9.70;;;6.13;;
64293;SDS011;50636;45.596;5.258;2023-03-21T03:01:55;13.75;;;6.25;;
64293;SDS011;50636;45.596;5.258;2023-03-21T03:04:23;12.68;;;6.03;;
64293;SDS011;50636;45.596;5.258;2023-03-21T03:12:14;11.27;;;6.13;;
64293;SDS011;50636;45.596;5.258;2023-03-21T03:14:55;9.98;;;5.35;;
64293;SDS011;50636;45.596;5.258;2023-03-21T03:20:47;7.53;;;5.10;;
64293;SDS011;50636;45.596;5.258;2023-03-21T03:23:51;8.88;;;5.10;;
64293;SDS011;50636;45.596;5.258;2023-03-21T03:29:36;7.63;;;4.88;;
64293;SDS011;50636;45.596;5.258;2023-03-21T03:32:09;7.05;;;5.13;;
64293;SDS011;50636;45.596;5.258;2023-03-21T03:34:41;11.75;;;6.57;;
64293;SDS011;50636;45.596;5.258;2023-03-21T03:37:15;9.88;;;5.68;;
64293;SDS011;50636;45.596;5.258;2023-03-21T03:42:23;8.63;;;4.40;;
64293;SDS011;50636;45.596;5.258;2023-03-21T03:44:54;7.95;;;4.47;;
64293;SDS011;50636;45.596;5.258;2023-03-21T03:47:26;8.07;;;5.22;;
64293;SDS011;50636;45.596;5.258;2023-03-21T03:50:20;8.80;;;5.45;;
64293;SDS011;50636;45.596;5.258;2023-03-21T03:52:59;8.18;;;5.47;;
64293;SDS011;50636;45.596;5.258;2023-03-21T03:55:30;8.48;;;5.55;;
64293;SDS011;50636;45.596;5.258;2023-03-21T03:57:59;9.38;;;5.40;;
64293;SDS011;50636;45.596;5.258;2023-03-21T04:00:26;8.25;;;5.25;;
64293;SDS011;50636;45.596;5.258;2023-03-21T04:02:56;8.45;;;5.50;;
64293;SDS011;50636;45.596;5.258;2023-03-21T04:05:23;7.65;;;5.07;;
64293;SDS011;50636;45.596;5.258;2023-03-21T04:07:50;6.88;;;5.03;;
64293;SDS011;50636;45.596;5.258;2023-03-21T04:10:16;18.67;;;6.35;;
64293;SDS011;50636;45.596;5.258;2023-03-21T04:12:42;10.00;;;4.63;;
64293;SDS011;50636;45.596;5.258;2023-03-21T04:15:08;10.63;;;5.57;;
64293;SDS011;50636;45.596;5.258;2023-03-21T04:17:34;8.02;;;4.80;;
64293;SDS011;50636;45.596;5.258;2023-03-21T04:20:00;9.93;;;4.80;;
64293;SDS011;50636;45.596;5.258;2023-03-21T04:22:26;8.05;;;5.35;;
64293;SDS011;50636;45.596;5.258;2023-03-21T04:24:52;7.63;;;5.20;;
64293;SDS011;50636;45.596;5.258;2023-03-21T04:27:17;9.13;;;4.93;;
64293;SDS011;50636;45.596;5.258;2023-03-21T04:29:43;9.90;;;6.20;;
64293;SDS011;50636;45.596;5.258;2023-03-21T04:32:09;6.35;;;5.55;;
64293;SDS011;50636;45.596;5.258;2023-03-21T04:34:40;7.75;;;5.63;;
64293;SDS011;50636;45.596;5.258;2023-03-21T04:37:08;9.45;;;6.00;;
64293;SDS011;50636;45.596;5.258;2023-03-21T04:39:36;9.60;;;6.15;;
64293;SDS011;50636;45.596;5.258;2023-03-21T04:42:03;11.00;;;6.07;;
64293;SDS011;50636;45.596;5.258;2023-03-21T04:44:29;11.43;;;6.57;;
64293;SDS011;50636;45.596;5.258;2023-03-21T04:46:54;6.65;;;5.82;;
64293;SDS011;50636;45.596;5.258;2023-03-21T04:49:20;12.85;;;5.72;;
64293;SDS011;50636;45.596;5.258;2023-03-21T04:51:46;11.27;;;5.97;;
64293;SDS011;50636;45.596;5.258;2023-03-21T04:54:12;11.30;;;7.63;;
64293;SDS011;50636;45.596;5.258;2023-03-21T04:56:38;11.98;;;7.57;;
64293;SDS011;50636;45.596;5.258;2023-03-21T04:59:08;24.90;;;20.98;;
64293;SDS011;50636;45.596;5.258;2023-03-21T05:01:35;15.90;;;9.63;;
64293;SDS011;50636;45.596;5.258;2023-03-21T05:04:01;15.13;;;11.52;;
64293;SDS011;50636;45.596;5.258;2023-03-21T05:06:27;15.68;;;6.80;;
64293;SDS011;50636;45.596;5.258;2023-03-21T05:08:54;11.40;;;5.97;;
64293;SDS011;50636;45.596;5.258;2023-03-21T05:11:27;7.93;;;5.45;;
64293;SDS011;50636;45.596;5.258;2023-03-21T05:13:54;11.48;;;5.45;;
64293;SDS011;50636;45.596;5.258;2023-03-21T05:16:21;10.07;;;5.22;;
64293;SDS011;50636;45.596;5.258;2023-03-21T05:18:51;12.95;;;6.18;;
64293;SDS011;50636;45.596;5.258;2023-03-21T05:21:19;21.30;;;6.63;;
64293;SDS011;50636;45.596;5.258;2023-03-21T05:23:47;9.32;;;5.53;;
64293;SDS011;50636;45.596;5.258;2023-03-21T05:26:20;10.50;;;5.63;;
64293;SDS011;50636;45.596;5.258;2023-03-21T05:28:47;12.05;;;5.22;;
64293;SDS011;50636;45.596;5.258;2023-03-21T05:31:14;10.43;;;4.90;;
64293;SDS011;50636;45.596;5.258;2023-03-21T05:33:43;11.73;;;5.63;;
64293;SDS011;50636;45.596;5.258;2023-03-21T05:36:10;7.60;;;5.05;;
64293;SDS011;50636;45.596;5.258;2023-03-21T05:38:39;15.73;;;5.75;;
64293;SDS011;50636;45.596;5.258;2023-03-21T05:41:10;12.70;;;6.10;;
64293;SDS011;50636;45.596;5.258;2023-03-21T05:43:40;9.38;;;5.60;;
64293;SDS011;50636;45.596;5.258;2023-03-21T05:46:06;7.28;;;5.35;;
64293;SDS011;50636;45.596;5.258;2023-03-21T05:48:31;6.55;;;4.90;;
64293;SDS011;50636;45.596;5.258;2023-03-21T05:50:58;14.55;;;5.75;;
64293;SDS011;50636;45.596;5.258;2023-03-21T05:53:25;10.50;;;6.15;;
64293;SDS011;50636;45.596;5.258;2023-03-21T05:55:51;7.68;;;5.45;;
64293;SDS011;50636;45.596;5.258;2023-03-21T05:58:17;10.20;;;6.63;;
64293;SDS011;50636;45.596;5.258;2023-03-21T06:00:43;9.98;;;6.25;;
64293;SDS011;50636;45.596;5.258;2023-03-21T06:03:08;7.72;;;5.53;;
64293;SDS011;50636;45.596;5.258;2023-03-21T06:05:34;11.25;;;6.25;;
64293;SDS011;50636;45.596;5.258;2023-03-21T06:08:00;14.88;;;6.00;;
64293;SDS011;50636;45.596;5.258;2023-03-21T06:10:26;14.13;;;6.07;;
64293;SDS011;50636;45.596;5.258;2023-03-21T06:12:51;14.40;;;6.43;;
64293;SDS011;50636;45.596;5.258;2023-03-21T06:15:20;22.30;;;8.13;;
64293;SDS011;50636;45.596;5.258;2023-03-21T06:17:46;18.58;;;8.05;;
64293;SDS011;50636;45.596;5.258;2023-03-21T06:20:11;11.75;;;7.43;;
64293;SDS011;50636;45.596;5.258;2023-03-21T06:22:37;27.15;;;7.03;;
64293;SDS011;50636;45.596;5.258;2023-03-21T06:25:03;13.57;;;6.00;;
64293;SDS011;50636;45.596;5.258;2023-03-21T06:27:31;10.43;;;5.80;;
64293;SDS011;50636;45.596;5.258;2023-03-21T06:29:57;11.38;;;5.93;;
64293;SDS011;50636;45.596;5.258;2023-03-21T06:32:23;9.20;;;5.57;;
64293;SDS011;50636;45.596;5.258;2023-03-21T06:34:49;7.90;;;5.75;;
64293;SDS011;50636;45.596;5.258;2023-03-21T06:37:15;13.30;;;5.80;;
64293;SDS011;50636;45.596;5.258;2023-03-21T06:39:41;8.65;;;6.00;;
64293;SDS011;50636;45.596;5.258;2023-03-21T06:42:07;24.25;;;6.45;;
64293;SDS011;50636;45.596;5.258;2023-03-21T06:44:32;17.88;;;5.63;;
64293;SDS011;50636;45.596;5.258;2023-03-21T06:46:58;28.25;;;6.55;;
64293;SDS011;50636;45.596;5.258;2023-03-21T06:49:24;13.63;;;6.03;;
64293;SDS011;50636;45.596;5.258;2023-03-21T06:51:50;16.70;;;5.95;;
64293;SDS011;50636;45.596;5.258;2023-03-21T06:54:16;9.13;;;5.30;;
64293;SDS011;50636;45.596;5.258;2023-03-21T06:56:42;11.05;;;5.15;;
64293;SDS011;50636;45.596;5.258;2023-03-21T06:59:08;9.55;;;5.20;;
64293;SDS011;50636;45.596;5.258;2023-03-21T07:01:34;9.80;;;5.13;;
64293;SDS011;50636;45.596;5.258;2023-03-21T07:04:00;12.13;;;4.63;;
64293;SDS011;50636;45.596;5.258;2023-03-21T07:06:26;15.23;;;5.15;;
64293;SDS011;50636;45.596;5.258;2023-03-21T07:08:53;7.78;;;4.68;;
64293;SDS011;50636;45.596;5.258;2023-03-21T07:11:20;9.60;;;4.38;;
64293;SDS011;50636;45.596;5.258;2023-03-21T07:13:46;14.88;;;5.38;;
64293;SDS011;50636;45.596;5.258;2023-03-21T07:16:13;11.15;;;5.15;;
64293;SDS011;50636;45.596;5.258;2023-03-21T07:18:42;12.82;;;5.47;;
64293;SDS011;50636;45.596;5.258;2023-03-21T07:21:07;11.32;;;5.50;;
64293;SDS011;50636;45.596;5.258;2023-03-21T07:23:33;12.27;;;5.18;;
64293;SDS011;50636;45.596;5.258;2023-03-21T07:25:59;9.20;;;4.47;;
64293;SDS011;50636;45.596;5.258;2023-03-21T07:28:26;15.98;;;5.32;;
64293;SDS011;50636;45.596;5.258;2023-03-21T07:30:53;8.45;;;5.22;;
64293;SDS011;50636;45.596;5.258;2023-03-21T07:33:21;10.27;;;5.47;;
64293;SDS011;50636;45.596;5.258;2023-03-21T07:35:48;9.80;;;5.15;;
64293;SDS011;50636;45.596;5.258;2023-03-21T07:38:14;7.95;;;4.57;;
64293;SDS011;50636;45.596;5.258;2023-03-21T07:40:42;21.05;;;5.18;;
64293;SDS011;50636;45.596;5.258;2023-03-21T07:43:08;12.10;;;4.90;;
64293;SDS011;50636;45.596;5.258;2023-03-21T07:45:34;15.10;;;5.03;;
64293;SDS011;50636;45.596;5.258;2023-03-21T07:48:00;14.63;;;5.40;;
64293;SDS011;50636;45.596;5.258;2023-03-21T07:50:25;17.98;;;5.80;;
64293;SDS011;50636;45.596;5.258;2023-03-21T07:52:51;9.80;;;4.85;;
64293;SDS011;50636;45.596;5.258;2023-03-21T07:55:17;13.15;;;6.05;;
64293;SDS011;50636;45.596;5.258;2023-03-21T07:57:43;12.35;;;4.70;;
64293;SDS011;50636;45.596;5.258;2023-03-21T08:00:08;8.98;;;4.88;;
64293;SDS011;50636;45.596;5.258;2023-03-21T08:02:34;20.95;;;5.82;;
64293;SDS011;50636;45.596;5.258;2023-03-21T08:05:00;13.73;;;4.72;;
64293;SDS011;50636;45.596;5.258;2023-03-21T08:07:27;11.23;;;6.05;;
64293;SDS011;50636;45.596;5.258;2023-03-21T08:09:53;15.25;;;4.88;;
64293;SDS011;50636;45.596;5.258;2023-03-21T08:12:19;17.20;;;5.53;;
64293;SDS011;50636;45.596;5.258;2023-03-21T08:14:45;9.57;;;4.72;;
64293;SDS011;50636;45.596;5.258;2023-03-21T08:17:10;12.20;;;6.25;;
64293;SDS011;50636;45.596;5.258;2023-03-21T08:19:36;13.27;;;6.43;;
64293;SDS011;50636;45.596;5.258;2023-03-21T08:22:02;17.95;;;6.70;;
64293;SDS011;50636;45.596;5.258;2023-03-21T08:24:30;14.27;;;6.88;;
64293;SDS011;50636;45.596;5.258;2023-03-21T08:26:58;21.90;;;6.95;;
64293;SDS011;50636;45.596;5.258;2023-03-21T08:29:25;17.63;;;7.28;;
64293;SDS011;50636;45.596;5.258;2023-03-21T08:31:51;14.35;;;6.40;;
64293;SDS011;50636;45.596;5.258;2023-03-21T08:34:16;14.77;;;6.00;;
64293;SDS011;50636;45.596;5.258;2023-03-21T08:36:43;16.80;;;7.10;;
64293;SDS011;50636;45.596;5.258;2023-03-21T08:39:09;16.80;;;6.43;;
64293;SDS011;50636;45.596;5.258;2023-03-21T08:41:35;19.58;;;6.65;;
64293;SDS011;50636;45.596;5.258;2023-03-21T08:44:02;11.75;;;6.78;;
64293;SDS011;50636;45.596;5.258;2023-03-21T08:46:30;15.68;;;7.30;;
64293;SDS011;50636;45.596;5.258;2023-03-21T08:48:56;11.13;;;6.22;;
64293;SDS011;50636;45.596;5.258;2023-03-21T08:51:21;14.70;;;6.10;;
64293;SDS011;50636;45.596;5.258;2023-03-21T08:53:47;23.23;;;7.35;;
64293;SDS011;50636;45.596;5.258;2023-03-21T08:56:15;16.67;;;7.32;;
64293;SDS011;50636;45.596;5.258;2023-03-21T08:58:41;10.57;;;5.03;;
64293;SDS011;50636;45.596;5.258;2023-03-21T09:01:08;17.45;;;5.85;;
64293;SDS011;50636;45.596;5.258;2023-03-21T09:03:38;10.80;;;5.18;;
64293;SDS011;50636;45.596;5.258;2023-03-21T09:06:04;14.20;;;5.75;;
64293;SDS011;50636;45.596;5.258;2023-03-21T09:08:30;9.40;;;5.45;;
64293;SDS011;50636;45.596;5.258;2023-03-21T09:10:56;21.23;;;6.55;;
64293;SDS011;50636;45.596;5.258;2023-03-21T09:13:22;19.20;;;6.80;;
64293;SDS011;50636;45.596;5.258;2023-03-21T09:15:48;22.00;;;5.60;;
64293;SDS011;50636;45.596;5.258;2023-03-21T09:18:14;21.05;;;6.13;;
64293;SDS011;50636;45.596;5.258;2023-03-21T09:20:43;11.07;;;5.20;;
64293;SDS011;50636;45.596;5.258;2023-03-21T09:23:11;9.10;;;4.90;;
64293;SDS011;50636;45.596;5.258;2023-03-21T09:25:40;12.07;;;4.90;;
64293;SDS011;50636;45.596;5.258;2023-03-21T09:28:06;14.40;;;5.13;;
64293;SDS011;50636;45.596;5.258;2023-03-21T09:30:33;9.77;;;4.15;;
64293;SDS011;50636;45.596;5.258;2023-03-21T09:33:03;15.45;;;4.70;;
64293;SDS011;50636;45.596;5.258;2023-03-21T09:35:36;16.85;;;5.63;;
64293;SDS011;50636;45.596;5.258;2023-03-21T09:38:02;6.22;;;4.13;;
64293;SDS011;50636;45.596;5.258;2023-03-21T09:46:03;6.43;;;3.42;;
64293;SDS011;50636;45.596;5.258;2023-03-21T09:48:40;7.78;;;3.67;;
64293;SDS011;50636;45.596;5.258;2023-03-21T09:51:21;9.80;;;4.32;;
64293;SDS011;50636;45.596;5.258;2023-03-21T09:53:50;4.75;;;3.38;;
64293;SDS011;50636;45.596;5.258;2023-03-21T09:56:17;3.85;;;3.30;;
64293;SDS011;50636;45.596;5.258;2023-03-21T09:58:45;13.30;;;4.63;;
64293;SDS011;50636;45.596;5.258;2023-03-21T10:01:20;10.02;;;4.00;;
64293;SDS011;50636;45.596;5.258;2023-03-21T10:04:05;6.10;;;4.03;;
64293;SDS011;50636;45.596;5.258;2023-03-21T10:06:35;8.50;;;3.83;;
64293;SDS011;50636;45.596;5.258;2023-03-21T10:09:06;17.45;;;5.55;;
64293;SDS011;50636;45.596;5.258;2023-03-21T10:11:44;11.40;;;4.10;;
64293;SDS011;50636;45.596;5.258;2023-03-21T10:14:30;14.63;;;4.57;;
64293;SDS011;50636;45.596;5.258;2023-03-21T10:17:03;23.98;;;8.20;;
64293;SDS011;50636;45.596;5.258;2023-03-21T10:19:35;7.80;;;3.92;;
64293;SDS011;50636;45.596;5.258;2023-03-21T10:22:01;16.30;;;4.32;;
64293;SDS011;50636;45.596;5.258;2023-03-21T10:24:27;10.50;;;4.22;;
64293;SDS011;50636;45.596;5.258;2023-03-21T10:26:53;14.13;;;5.05;;
64293;SDS011;50636;45.596;5.258;2023-03-21T10:29:23;6.07;;;3.65;;
64293;SDS011;50636;45.596;5.258;2023-03-21T10:31:52;14.05;;;4.35;;
64293;SDS011;50636;45.596;5.258;2023-03-21T10:34:41;8.18;;;4.00;;
64293;SDS011;50636;45.596;5.258;2023-03-21T10:37:09;14.60;;;4.40;;
64293;SDS011;50636;45.596;5.258;2023-03-21T10:39:37;8.60;;;3.55;;
64293;SDS011;50636;45.596;5.258;2023-03-21T10:42:05;10.20;;;4.10;;
64293;SDS011;50636;45.596;5.258;2023-03-21T10:44:38;9.70;;;4.33;;
64293;SDS011;50636;45.596;5.258;2023-03-21T10:47:08;8.98;;;3.22;;
64293;SDS011;50636;45.596;5.258;2023-03-21T10:49:36;16.85;;;4.30;;
64293;SDS011;50636;45.596;5.258;2023-03-21T10:52:07;17.00;;;4.05;;
64293;SDS011;50636;45.596;5.258;2023-03-21T10:54:35;8.98;;;3.63;;
64293;SDS011;50636;45.596;5.258;2023-03-21T10:57:08;8.35;;;3.22;;
64293;SDS011;50636;45.596;5.258;2023-03-21T10:59:44;11.52;;;3.33;;
64293;SDS011;50636;45.596;5.258;2023-03-21T11:02:24;23.92;;;4.80;;
64293;SDS011;50636;45.596;5.258;2023-03-21T11:04:56;4.57;;;3.05;;
64293;SDS011;50636;45.596;5.258;2023-03-21T11:07:59;5.35;;;3.10;;
64293;SDS011;50636;45.596;5.258;2023-03-21T11:10:35;17.70;;;3.90;;
64293;SDS011;50636;45.596;5.258;2023-03-21T11:13:25;6.43;;;3.58;;
64293;SDS011;50636;45.596;5.258;2023-03-21T11:16:05;17.30;;;4.10;;
64293;SDS011;50636;45.596;5.258;2023-03-21T11:18:33;10.43;;;2.40;;
64293;SDS011;50636;45.596;5.258;2023-03-21T11:21:05;11.82;;;3.10;;
64293;SDS011;50636;45.596;5.258;2023-03-21T11:23:34;8.77;;;3.00;;
64293;SDS011;50636;45.596;5.258;2023-03-21T11:26:07;11.75;;;3.33;;
64293;SDS011;50636;45.596;5.258;2023-03-21T11:28:36;13.13;;;3.45;;
64293;SDS011;50636;45.596;5.258;2023-03-21T11:31:04;13.75;;;3.10;;
64293;SDS011;50636;45.596;5.258;2023-03-21T11:33:37;14.52;;;2.97;;
64293;SDS011;50636;45.596;5.258;2023-03-21T11:38:49;11.43;;;3.30;;
64293;SDS011;50636;45.596;5.258;2023-03-21T11:41:22;7.88;;;2.50;;
64293;SDS011;50636;45.596;5.258;2023-03-21T11:43:52;4.65;;;2.20;;
64293;SDS011;50636;45.596;5.258;2023-03-21T11:46:25;9.73;;;2.80;;
64293;SDS011;50636;45.596;5.258;2023-03-21T11:48:53;6.82;;;3.05;;
64293;SDS011;50636;45.596;5.258;2023-03-21T12:11:27;7.35;;;2.00;;
64293;SDS011;50636;45.596;5.258;2023-03-21T12:14:34;15.82;;;2.50;;
64293;SDS011;50636;45.596;5.258;2023-03-21T12:19:45;4.63;;;1.20;;
64293;SDS011;50636;45.596;5.258;2023-03-21T12:28:47;7.68;;;2.40;;
64293;SDS011;50636;45.596;5.258;2023-03-21T12:39:42;10.10;;;3.17;;
64293;SDS011;50636;45.596;5.258;2023-03-21T12:44:57;8.35;;;2.78;;
64293;SDS011;50636;45.596;5.258;2023-03-21T12:47:29;6.60;;;1.95;;
64293;SDS011;50636;45.596;5.258;2023-03-21T12:52:38;15.88;;;2.70;;
64293;SDS011;50636;45.596;5.258;2023-03-21T12:55:17;16.83;;;2.72;;
64293;SDS011;50636;45.596;5.258;2023-03-21T12:57:46;4.43;;;1.65;;
64293;SDS011;50636;45.596;5.258;2023-03-21T13:00:18;4.80;;;2.45;;
64293;SDS011;50636;45.596;5.258;2023-03-21T13:02:52;12.10;;;1.95;;
64293;SDS011;50636;45.596;5.258;2023-03-21T13:10:51;9.70;;;2.95;;
64293;SDS011;50636;45.596;5.258;2023-03-21T13:13:30;8.35;;;1.83;;
64293;SDS011;50636;45.596;5.258;2023-03-21T13:16:38;4.57;;;1.67;;
64293;SDS011;50636;45.596;5.258;2023-03-21T13:19:13;9.15;;;2.63;;
64293;SDS011;50636;45.596;5.258;2023-03-21T13:24:42;8.30;;;1.45;;
64293;SDS011;50636;45.596;5.258;2023-03-21T13:27:35;9.35;;;2.03;;
64293;SDS011;50636;45.596;5.258;2023-03-21T13:30:17;16.40;;;2.75;;
64293;SDS011;50636;45.596;5.258;2023-03-21T13:32:45;15.30;;;1.92;;
64293;SDS011;50636;45.596;5.258;2023-03-21T13:37:52;13.20;;;2.22;;
64293;SDS011;50636;45.596;5.258;2023-03-21T13:40:22;5.18;;;1.90;;
64293;SDS011;50636;45.596;5.258;2023-03-21T13:42:54;13.68;;;2.50;;
64293;SDS011;50636;45.596;5.258;2023-03-21T13:45:44;6.63;;;1.52;;
64293;SDS011;50636;45.596;5.258;2023-03-21T13:48:39;11.75;;;2.15;;
64293;SDS011;50636;45.596;5.258;2023-03-21T13:56:57;6.30;;;1.90;;
64293;SDS011;50636;45.596;5.258;2023-03-21T14:04:37;8.38;;;1.75;;
64293;SDS011;50636;45.596;5.258;2023-03-21T14:07:06;4.25;;;1.60;;
64293;SDS011;50636;45.596;5.258;2023-03-21T14:09:53;11.82;;;2.30;;
64293;SDS011;50636;45.596;5.258;2023-03-21T14:12:28;11.65;;;2.92;;
64293;SDS011;50636;45.596;5.258;2023-03-21T14:17:33;15.68;;;2.08;;
64293;SDS011;50636;45.596;5.258;2023-03-21T14:22:41;5.32;;;1.42;;
64293;SDS011;50636;45.596;5.258;2023-03-21T14:25:13;5.03;;;1.70;;
64293;SDS011;50636;45.596;5.258;2023-03-21T14:27:47;7.45;;;1.60;;
64293;SDS011;50636;45.596;5.258;2023-03-21T14:30:25;5.80;;;1.45;;
64293;SDS011;50636;45.596;5.258;2023-03-21T14:32:58;11.13;;;2.30;;
64293;SDS011;50636;45.596;5.258;2023-03-21T14:38:06;9.18;;;1.63;;
64293;SDS011;50636;45.596;5.258;2023-03-21T14:40:46;6.20;;;1.40;;
64293;SDS011;50636;45.596;5.258;2023-03-21T14:43:14;10.35;;;1.55;;
64293;SDS011;50636;45.596;5.258;2023-03-21T14:45:39;6.13;;;1.60;;
64293;SDS011;50636;45.596;5.258;2023-03-21T14:48:07;8.13;;;1.70;;
64293;SDS011;50636;45.596;5.258;2023-03-21T14:50:50;23.10;;;3.08;;
64293;SDS011;50636;45.596;5.258;2023-03-21T14:53:19;18.48;;;2.08;;
64293;SDS011;50636;45.596;5.258;2023-03-21T14:58:33;63.97;;;6.05;;
64293;SDS011;50636;45.596;5.258;2023-03-21T15:01:05;172.38;;;13.80;;
64293;SDS011;50636;45.596;5.258;2023-03-21T15:03:37;107.03;;;6.95;;
64293;SDS011;50636;45.596;5.258;2023-03-21T15:06:03;260.40;;;17.90;;
64293;SDS011;50636;45.596;5.258;2023-03-21T15:08:29;116.20;;;9.32;;
64293;SDS011;50636;45.596;5.258;2023-03-21T15:10:59;104.55;;;8.50;;
64293;SDS011;50636;45.596;5.258;2023-03-21T15:13:45;193.95;;;11.65;;
64293;SDS011;50636;45.596;5.258;2023-03-21T15:16:17;208.45;;;20.33;;
64293;SDS011;50636;45.596;5.258;2023-03-21T15:18:43;121.07;;;14.85;;
64293;SDS011;50636;45.596;5.258;2023-03-21T15:21:16;101.38;;;13.77;;
64293;SDS011;50636;45.596;5.258;2023-03-21T15:23:47;133.15;;;22.00;;
64293;SDS011;50636;45.596;5.258;2023-03-21T15:26:15;84.75;;;11.50;;
64293;SDS011;50636;45.596;5.258;2023-03-21T15:28:45;60.42;;;14.85;;
64293;SDS011;50636;45.596;5.258;2023-03-21T15:31:16;57.42;;;12.65;;
64293;SDS011;50636;45.596;5.258;2023-03-21T15:33:48;73.00;;;21.42;;
64293;SDS011;50636;45.596;5.258;2023-03-21T15:36:25;15.82;;;3.10;;
64293;SDS011;50636;45.596;5.258;2023-03-21T15:38:53;34.83;;;6.70;;
64293;SDS011;50636;45.596;5.258;2023-03-21T15:44:30;31.67;;;7.82;;
64293;SDS011;50636;45.596;5.258;2023-03-21T15:46:44;16.88;;;4.20;;
64293;SDS011;50636;45.596;5.258;2023-03-21T15:51:40;23.70;;;6.13;;
64293;SDS011;50636;45.596;5.258;2023-03-21T15:54:11;13.65;;;2.67;;
64293;SDS011;50636;45.596;5.258;2023-03-21T15:56:41;22.92;;;2.40;;
64293;SDS011;50636;45.596;5.258;2023-03-21T15:59:14;9.27;;;1.73;;
64293;SDS011;50636;45.596;5.258;2023-03-21T16:01:46;13.07;;;2.25;;
64293;SDS011;50636;45.596;5.258;2023-03-21T16:04:13;16.90;;;2.38;;
64293;SDS011;50636;45.596;5.258;2023-03-21T16:06:59;38.50;;;4.05;;
64293;SDS011;50636;45.596;5.258;2023-03-21T16:09:40;70.07;;;4.57;;
64293;SDS011;50636;45.596;5.258;2023-03-21T16:12:12;45.33;;;3.85;;
64293;SDS011;50636;45.596;5.258;2023-03-21T16:14:39;51.40;;;4.00;;
64293;SDS011;50636;45.596;5.258;2023-03-21T16:17:46;44.53;;;4.88;;
64293;SDS011;50636;45.596;5.258;2023-03-21T16:20:49;110.47;;;38.63;;
64293;SDS011;50636;45.596;5.258;2023-03-21T16:22:53;50.35;;;5.25;;
64293;SDS011;50636;45.596;5.258;2023-03-21T16:25:19;66.07;;;4.97;;
64293;SDS011;50636;45.596;5.258;2023-03-21T16:27:46;34.03;;;3.35;;
64293;SDS011;50636;45.596;5.258;2023-03-21T16:30:13;74.32;;;5.18;;
64293;SDS011;50636;45.596;5.258;2023-03-21T16:32:41;60.55;;;5.25;;
64293;SDS011;50636;45.596;5.258;2023-03-21T16:35:06;116.53;;;5.95;;
64293;SDS011;50636;45.596;5.258;2023-03-21T16:37:33;53.83;;;5.07;;
64293;SDS011;50636;45.596;5.258;2023-03-21T16:39:58;58.47;;;3.92;;
64293;SDS011;50636;45.596;5.258;2023-03-21T16:42:24;47.70;;;3.45;;
64293;SDS011;50636;45.596;5.258;2023-03-21T16:44:50;36.03;;;2.92;;
64293;SDS011;50636;45.596;5.258;2023-03-21T16:47:17;38.22;;;3.20;;
64293;SDS011;50636;45.596;5.258;2023-03-21T16:49:44;14.25;;;2.38;;
64293;SDS011;50636;45.596;5.258;2023-03-21T16:52:11;16.33;;;2.20;;
64293;SDS011;50636;45.596;5.258;2023-03-21T16:54:38;8.50;;;1.65;;
64293;SDS011;50636;45.596;5.258;2023-03-21T16:57:05;27.40;;;3.28;;
64293;SDS011;50636;45.596;5.258;2023-03-21T16:59:35;42.17;;;3.45;;
64293;SDS011;50636;45.596;5.258;2023-03-21T17:02:12;23.08;;;2.53;;
64293;SDS011;50636;45.596;5.258;2023-03-21T17:04:40;15.98;;;1.95;;
64293;SDS011;50636;45.596;5.258;2023-03-21T17:07:08;41.25;;;3.55;;
64293;SDS011;50636;45.596;5.258;2023-03-21T17:09:38;14.13;;;1.65;;